Time,TemperatureF,DewpointF,PressureIn,WindDirection,WindDirectionDegrees,WindSpeedMPH,WindSpeedGustMPH,Humidity,HourlyPrecipIn,Conditions,Clouds,dailyrainin,SoftwareType,DateUTC
2013-04-11 00:03:00,37.9,36.6,29.76,ENE,67,1.0,7.0,95,0.15,,,-99.99,WeatherLink 5.7,2013-04-11 05:03:00,
2013-04-11 00:18:00,38.0,36.7,29.78,NE,45,1.0,9.0,95,0.11,,,-99.99,WeatherLink 5.7,2013-04-11 05:18:00,
2013-04-11 00:33:00,38.2,36.9,29.76,ESE,112,2.0,10.0,95,0.11,,,-99.99,WeatherLink 5.7,2013-04-11 05:33:00,
2013-04-11 00:48:00,37.9,36.6,29.60,ESE,112,4.0,18.0,95,0.11,,,-99.99,WeatherLink 5.7,2013-04-11 05:48:00,
2013-04-11 01:03:00,37.6,36.3,29.67,SSE,157,5.0,18.0,95,0.09,,,-99.99,WeatherLink 5.7,2013-04-11 06:03:00,
2013-04-11 01:18:00,37.6,36.3,29.68,SE,135,4.0,13.0,95,0.08,,,-99.99,WeatherLink 5.7,2013-04-11 06:18:00,
2013-04-11 01:33:00,37.5,36.2,29.67,SE,135,5.0,30.0,95,0.04,,,-99.99,WeatherLink 5.7,2013-04-11 06:33:00,
2013-04-11 01:48:00,37.3,36.0,29.68,SE,135,4.0,14.0,95,0.01,,,-99.99,WeatherLink 5.7,2013-04-11 06:48:00,
2013-04-11 02:03:00,37.3,36.0,29.67,SE,135,3.0,14.0,95,0.00,,,-99.99,WeatherLink 5.7,2013-04-11 07:03:00,
2013-04-11 02:18:00,37.3,36.0,29.67,ESE,112,5.0,16.0,95,0.00,,,-99.99,WeatherLink 5.7,2013-04-11 07:18:00,
2013-04-11 02:33:00,37.2,35.9,29.66,ESE,112,4.0,13.0,95,0.00,,,-99.99,WeatherLink 5.7,2013-04-11 07:33:00,
2013-04-11 02:48:00,37.2,35.6,29.65,SE,135,3.0,13.0,94,0.00,,,-99.99,WeatherLink 5.7,2013-04-11 07:48:00,
2013-04-11 03:03:00,37.2,35.6,29.65,SE,135,4.0,20.0,94,0.00,,,-99.99,WeatherLink 5.7,2013-04-11 08:03:00,
2013-04-11 03:18:00,37.2,35.6,29.64,SE,135,3.0,15.0,94,0.00,,,-99.99,WeatherLink 5.7,2013-04-11 08:18:00,
2013-04-11 03:33:00,37.2,35.6,29.62,SE,135,4.0,16.0,94,0.00,,,-99.99,WeatherLink 5.7,2013-04-11 08:33:00,
2013-04-11 03:48:00,37.0,35.4,29.62,ESE,112,4.0,16.0,94,0.00,,,-99.99,WeatherLink 5.7,2013-04-11 08:48:00,
2013-04-11 04:03:00,36.9,35.3,29.62,SE,135,4.0,16.0,94,0.00,,,-99.99,WeatherLink 5.7,2013-04-11 09:03:00,
2013-04-11 04:18:00,36.8,35.0,29.62,SE,135,5.0,18.0,93,0.00,,,-99.99,WeatherLink 5.7,2013-04-11 09:18:00,
2013-04-11 04:33:00,36.8,35.2,29.62,ESE,112,3.0,12.0,94,0.01,,,-99.99,WeatherLink 5.7,2013-04-11 09:33:00,
2013-04-11 04:48:00,36.6,35.0,29.60,ESE,112,3.0,14.0,94,0.01,,,-99.99,WeatherLink 5.7,2013-04-11 09:48:00,
2013-04-11 05:03:00,36.5,34.9,29.61,SE,135,4.0,13.0,94,0.01,,,-99.99,WeatherLink 5.7,2013-04-11 10:03:00,
2013-04-11 05:18:00,36.5,34.9,29.60,ESE,112,3.0,11.0,94,0.01,,,-99.99,WeatherLink 5.7,2013-04-11 10:18:00,
2013-04-11 05:33:00,36.6,35.3,29.59,SE,135,3.0,10.0,95,0.01,,,-99.99,WeatherLink 5.7,2013-04-11 10:33:00,
2013-04-11 05:48:00,36.6,35.3,29.59,SE,135,4.0,16.0,95,0.02,,,-99.99,WeatherLink 5.7,2013-04-11 10:48:00,
2013-04-11 06:03:00,36.6,35.3,29.59,East,90,3.0,18.0,95,0.02,,,-99.99,WeatherLink 5.7,2013-04-11 11:03:00,
2013-04-11 06:18:00,36.6,35.3,29.59,SE,135,4.0,12.0,95,0.03,,,-99.99,WeatherLink 5.7,2013-04-11 11:18:00,
2013-04-11 06:33:00,36.8,35.5,29.58,SE,135,3.0,13.0,95,0.02,,,-99.99,WeatherLink 5.7,2013-04-11 11:33:00,
2013-04-11 06:49:00,36.8,35.5,29.58,SE,135,3.0,12.0,95,0.02,,,-99.99,WeatherLink 5.7,2013-04-11 11:49:00,
2013-04-11 07:03:00,36.9,35.6,29.58,ESE,112,4.0,14.0,95,0.02,,,-99.99,WeatherLink 5.7,2013-04-11 12:03:00,
2013-04-11 07:18:00,36.9,35.6,29.59,SE,135,3.0,10.0,95,0.01,,,-99.99,WeatherLink 5.7,2013-04-11 12:18:00,
2013-04-11 07:33:00,37.0,35.7,29.58,East,90,3.0,14.0,95,0.01,,,-99.99,WeatherLink 5.7,2013-04-11 12:33:00,
2013-04-11 07:48:00,37.2,35.9,29.58,ESE,112,3.0,12.0,95,0.02,,,-99.99,WeatherLink 5.7,2013-04-11 12:48:00,
2013-04-11 08:03:00,37.5,36.5,29.58,ESE,112,3.0,12.0,96,0.02,,,-99.99,WeatherLink 5.7,2013-04-11 13:03:00,
2013-04-11 08:18:00,37.6,36.6,29.58,ESE,112,2.0,11.0,96,0.04,,,-99.99,WeatherLink 5.7,2013-04-11 13:18:00,
2013-04-11 08:33:00,37.8,36.8,29.57,ESE,112,2.0,11.0,96,0.04,,,-99.99,WeatherLink 5.7,2013-04-11 13:33:00,
2013-04-11 08:48:00,37.9,36.9,29.59,ESE,112,1.0,8.0,96,0.02,,,-99.99,WeatherLink 5.7,2013-04-11 13:48:00,
2013-04-11 09:03:00,38.2,37.2,29.59,SE,135,1.0,8.0,96,0.03,,,-99.99,WeatherLink 5.7,2013-04-11 14:03:00,
2013-04-11 09:18:00,38.6,37.6,29.57,ESE,112,1.0,6.0,96,0.02,,,-99.99,WeatherLink 5.7,2013-04-11 14:18:00,
2013-04-11 09:33:00,38.6,37.6,29.57,ESE,112,1.0,13.0,96,0.03,,,-99.99,WeatherLink 5.7,2013-04-11 14:33:00,
2013-04-11 09:48:00,38.6,37.6,29.56,SE,135,2.0,10.0,96,0.03,,,-99.99,WeatherLink 5.7,2013-04-11 14:48:00,
2013-04-11 10:03:00,38.6,37.6,29.56,ESE,112,3.0,12.0,96,0.02,,,-99.99,WeatherLink 5.7,2013-04-11 15:03:00,
2013-04-11 10:18:00,38.8,37.8,29.57,ESE,112,3.0,11.0,96,0.01,,,-99.99,WeatherLink 5.7,2013-04-11 15:18:00,
2013-04-11 10:33:00,38.9,37.9,29.57,ESE,112,2.0,9.0,96,0.00,,,-99.99,WeatherLink 5.7,2013-04-11 15:33:00,
2013-04-11 10:48:00,39.3,38.3,29.56,SE,135,2.0,11.0,96,0.01,,,-99.99,WeatherLink 5.7,2013-04-11 15:48:00,
2013-04-11 11:03:00,39.3,38.3,29.56,SE,135,2.0,10.0,96,0.01,,,-99.99,WeatherLink 5.7,2013-04-11 16:03:00,
2013-04-11 11:18:00,39.3,38.3,29.56,SE,135,2.0,7.0,96,0.01,,,-99.99,WeatherLink 5.7,2013-04-11 16:18:00,
2013-04-11 11:33:00,39.3,38.3,29.55,SE,135,1.0,12.0,96,0.01,,,-99.99,WeatherLink 5.7,2013-04-11 16:33:00,
2013-04-11 11:48:00,39.2,38.2,29.55,ESE,112,3.0,18.0,96,0.00,,,-99.99,WeatherLink 5.7,2013-04-11 16:48:00,
2013-04-11 12:00:00,39.3,38.5,29.54,SE,135,2.0,13.0,97,0.00,,,-99.99,WeatherLink 5.7,2013-04-11 17:00:00,
2013-04-11 12:18:00,39.3,38.3,29.53,SE,135,3.0,10.0,96,0.00,,,-99.99,WeatherLink 5.7,2013-04-11 17:18:00,
2013-04-11 12:33:00,39.3,38.5,29.53,ESE,112,3.0,11.0,97,0.00,,,-99.99,WeatherLink 5.7,2013-04-11 17:33:00,
2013-04-11 12:48:00,39.3,38.5,29.53,SE,135,2.0,10.0,97,0.00,,,-99.99,WeatherLink 5.7,2013-04-11 17:48:00,
2013-04-11 13:03:00,39.5,38.7,29.52,ESE,112,2.0,10.0,97,0.00,,,-99.99,WeatherLink 5.7,2013-04-11 18:03:00,
2013-04-11 13:18:00,39.6,38.8,29.53,ESE,112,2.0,11.0,97,0.00,,,-99.99,WeatherLink 5.7,2013-04-11 18:18:00,
2013-04-11 13:33:00,39.9,39.1,29.51,East,90,2.0,10.0,97,0.00,,,-99.99,WeatherLink 5.7,2013-04-11 18:33:00,
2013-04-11 13:48:00,40.1,39.3,29.51,ESE,112,2.0,10.0,97,0.00,,,-99.99,WeatherLink 5.7,2013-04-11 18:48:00,
2013-04-11 14:03:00,40.2,39.4,29.52,SE,135,1.0,9.0,97,0.00,,,-99.99,WeatherLink 5.7,2013-04-11 19:03:00,
2013-04-11 14:18:00,40.5,39.7,29.52,SE,135,1.0,7.0,97,0.01,,,-99.99,WeatherLink 5.7,2013-04-11 19:18:00,
2013-04-11 14:33:00,40.6,39.8,29.51,SE,135,1.0,7.0,97,0.01,,,-99.99,WeatherLink 5.7,2013-04-11 19:33:00,
2013-04-11 14:48:00,41.1,40.3,29.50,ESE,112,0.0,5.0,97,0.01,,,-99.99,WeatherLink 5.7,2013-04-11 19:48:00,
2013-04-11 15:03:00,41.2,40.4,29.50,ESE,112,0.0,6.0,97,0.01,,,-99.99,WeatherLink 5.7,2013-04-11 20:03:00,
2013-04-11 15:18:00,41.2,40.4,29.50,ESE,112,2.0,13.0,97,0.00,,,-99.99,WeatherLink 5.7,2013-04-11 20:18:00,
2013-04-11 15:33:00,41.5,40.7,29.51,ENE,67,0.0,4.0,97,0.00,,,-99.99,WeatherLink 5.7,2013-04-11 20:33:00,
2013-04-11 15:49:00,41.2,40.4,29.50,ENE,67,0.0,4.0,97,0.00,,,-99.99,WeatherLink 5.7,2013-04-11 20:49:00,
2013-04-11 16:03:00,41.1,40.3,29.49,East,90,0.0,6.0,97,0.00,,,-99.99,WeatherLink 5.7,2013-04-11 21:03:00,
2013-04-11 16:18:00,40.9,40.1,29.49,East,90,0.0,4.0,97,0.00,,,-99.99,WeatherLink 5.7,2013-04-11 21:18:00,
2013-04-11 16:33:00,40.8,40.0,29.50,ENE,67,1.0,6.0,97,0.01,,,-99.99,WeatherLink 5.7,2013-04-11 21:33:00,
2013-04-11 16:48:00,40.9,40.1,29.49,North,0,1.0,6.0,97,0.01,,,-99.99,WeatherLink 5.7,2013-04-11 21:48:00,
2013-04-11 17:03:00,40.9,40.1,29.50,ENE,67,0.0,6.0,97,0.01,,,-99.99,WeatherLink 5.7,2013-04-11 22:03:00,
2013-04-11 17:18:00,40.8,40.0,29.50,NNE,22,0.0,5.0,97,0.01,,,-99.99,WeatherLink 5.7,2013-04-11 22:18:00,
2013-04-11 17:33:00,40.5,39.7,29.51,NNE,22,0.0,4.0,97,0.00,,,-99.99,WeatherLink 5.7,2013-04-11 22:33:00,
2013-04-11 17:48:00,40.3,39.5,29.51,NE,45,0.0,3.0,97,0.00,,,-99.99,WeatherLink 5.7,2013-04-11 22:48:00,
2013-04-11 18:03:00,40.2,39.4,29.50,NNE,22,0.0,5.0,97,0.00,,,-99.99,WeatherLink 5.7,2013-04-11 23:03:00,
2013-04-11 18:18:00,40.2,39.4,29.48,NNE,22,1.0,7.0,97,0.00,,,-99.99,WeatherLink 5.7,2013-04-11 23:18:00,
2013-04-11 18:33:00,39.9,39.1,29.47,NNE,22,1.0,9.0,97,0.00,,,-99.99,WeatherLink 5.7,2013-04-11 23:33:00,
2013-04-11 18:48:00,39.6,38.8,29.47,NE,45,1.0,10.0,97,0.00,,,-99.99,WeatherLink 5.7,2013-04-11 23:48:00,
2013-04-11 19:03:00,39.3,38.5,29.48,SE,135,1.0,7.0,97,0.00,,,-99.99,WeatherLink 5.7,2013-04-12 00:03:00,
2013-04-11 19:18:00,39.2,38.4,29.48,ESE,112,1.0,7.0,97,0.00,,,-99.99,WeatherLink 5.7,2013-04-12 00:18:00,
2013-04-11 19:33:00,38.9,38.1,29.48,North,0,0.0,5.0,97,0.01,,,-99.99,WeatherLink 5.7,2013-04-12 00:33:00,
2013-04-11 19:48:00,38.9,38.1,29.48,NNE,22,0.0,3.0,97,0.01,,,-99.99,WeatherLink 5.7,2013-04-12 00:48:00,
2013-04-11 20:03:00,38.8,38.0,29.48,ENE,67,0.0,3.0,97,0.01,,,-99.99,WeatherLink 5.7,2013-04-12 01:03:00,
2013-04-11 20:19:00,38.6,37.8,29.46,NNE,22,0.0,4.0,97,0.02,,,-99.99,WeatherLink 5.7,2013-04-12 01:19:00,
2013-04-11 20:35:00,38.5,37.7,29.46,East,90,0.0,4.0,97,0.01,,,-99.99,WeatherLink 5.7,2013-04-12 01:35:00,
2013-04-11 20:48:00,38.5,37.7,29.46,NE,45,0.0,4.0,97,0.01,,,-99.99,WeatherLink 5.7,2013-04-12 01:48:00,
2013-04-11 21:03:00,38.3,37.5,29.45,ESE,112,0.0,2.0,97,0.01,,,-99.99,WeatherLink 5.7,2013-04-12 02:03:00,
2013-04-11 21:18:00,38.3,37.5,29.46,East,90,0.0,5.0,97,0.00,,,-99.99,WeatherLink 5.7,2013-04-12 02:18:00,
2013-04-11 21:33:00,38.3,37.5,29.46,East,90,0.0,3.0,97,0.00,,,-99.99,WeatherLink 5.7,2013-04-12 02:33:00,
2013-04-11 21:48:00,38.3,37.5,29.47,SE,135,0.0,2.0,97,0.00,,,-99.99,WeatherLink 5.7,2013-04-12 02:48:00,
2013-04-11 22:03:00,38.3,37.5,29.47,SE,135,0.0,3.0,97,0.01,,,-99.99,WeatherLink 5.7,2013-04-12 03:03:00,
2013-04-11 22:18:00,38.3,37.5,29.46,ESE,112,0.0,1.0,97,0.01,,,-99.99,WeatherLink 5.7,2013-04-12 03:18:00,
2013-04-11 22:33:00,38.3,37.5,29.47,North,-999,0.0,0.0,97,0.01,,,-99.99,WeatherLink 5.7,2013-04-12 03:33:00,
2013-04-11 22:48:00,38.3,37.5,29.46,North,-999,0.0,0.0,97,0.01,,,-99.99,WeatherLink 5.7,2013-04-12 03:48:00,
2013-04-11 23:03:00,38.3,37.5,29.46,North,-999,0.0,0.0,97,0.00,,,-99.99,WeatherLink 5.7,2013-04-12 04:03:00,
2013-04-11 23:18:00,38.5,37.7,29.47,North,-999,0.0,0.0,97,0.00,,,-99.99,WeatherLink 5.7,2013-04-12 04:18:00,
2013-04-11 23:33:00,38.5,37.7,29.46,North,-999,0.0,0.0,97,0.01,,,-99.99,WeatherLink 5.7,2013-04-12 04:33:00,
2013-04-11 23:48:00,38.8,38.0,29.46,WSW,247,2.0,11.0,97,0.02,,,-99.99,WeatherLink 5.7,2013-04-12 04:48:00,